Perryopolis, Pennsylvania
Current Conditions -  °F | °C
As of 5:53 PM on Thursday 20 Nov 2014 (Local Time) from KAGC Reporting Station
Clear Clear  
Wind Chill: 11°   Ceiling: Unl
Heat Index: 25°   Visibility: 10mi
Dew Point:   Wind: 18mph
Humidity: 46%   Direction: 250°WSW
Pressure: 30.02"   Gusts: NA
Location:  40.09°N, 79.75°W
Report Text: KAGC 202253Z 25016KT 10SM CLR M04/M14 A3002 RMK AO2 SLP185 T10391139
Loading
Personal Weather Stations






























Interactive Weather Map New forecast layout! Learn more

10-Day Weather Forecast

Advertisements
Track Severe Weather on mobile